Time;durP1;ratioP1;P1;durP2;ratioP2;P2;SDS_P1;SDS_P2;PMS_P1;PMS_P2;Temp;Humidity;BMP_temperature;BMP_pressure;BME280_temperature;BME280_humidity;BME280_pressure;Samples;Min_cycle;Max_cycle;Signal;HPM_P1;HPM_P2
2024/04/19 00:02:13;;;;;;;6.30;5.70;;;6.50;78.50;;;;;;5468938;26;20009;-63
2024/04/19 00:04:38;;;;;;;6.90;5.53;;;6.50;78.60;;;;;;5470050;26;20013;-63
2024/04/19 00:07:05;;;;;;;7.35;6.28;;;6.50;78.80;;;;;;5460743;26;20105;-62
2024/04/19 00:09:30;;;;;;;5.95;5.40;;;6.40;78.90;;;;;;5465052;26;19998;-61
2024/04/19 00:11:56;;;;;;;6.80;5.85;;;6.30;79.00;;;;;;5466965;26;20030;-63
2024/04/19 00:14:21;;;;;;;6.80;6.10;;;6.30;79.30;;;;;;5464882;26;19998;-62
2024/04/19 00:16:47;;;;;;;6.93;5.75;;;6.30;79.30;;;;;;5463948;26;20357;-62
2024/04/19 00:19:12;;;;;;;6.68;6.03;;;6.20;79.30;;;;;;5476356;26;20010;-63
2024/04/19 00:21:38;;;;;;;6.93;5.72;;;6.20;79.50;;;;;;5469066;26;20003;-63
2024/04/19 00:24:04;;;;;;;6.65;5.95;;;6.20;79.60;;;;;;5468441;26;19994;-62
2024/04/19 00:26:29;;;;;;;6.38;5.72;;;6.20;79.60;;;;;;5465477;26;20006;-64
2024/04/19 00:28:55;;;;;;;6.28;5.55;;;6.10;79.70;;;;;;5471160;26;20022;-63
2024/04/19 00:31:20;;;;;;;6.25;5.38;;;6.10;79.80;;;;;;5465721;26;20002;-62
2024/04/19 00:33:46;;;;;;;8.10;6.00;;;6.10;79.90;;;;;;5469398;26;19994;-64
2024/04/19 00:36:12;;;;;;;6.88;5.82;;;6.00;80.20;;;;;;5457984;26;20009;-62
2024/04/19 00:38:38;;;;;;;6.75;6.05;;;6.00;80.40;;;;;;5469580;26;20026;-64
2024/04/19 00:41:04;;;;;;;6.30;5.57;;;6.00;80.40;;;;;;5468657;26;22862;-63
2024/04/19 00:43:29;;;;;;;6.82;6.13;;;6.00;80.60;;;;;;5462395;26;20514;-63
2024/04/19 00:45:55;;;;;;;7.35;6.50;;;5.90;80.60;;;;;;5462746;26;20001;-63
2024/04/19 00:48:22;;;;;;;6.93;6.13;;;5.90;80.60;;;;;;5469132;26;20027;-63
2024/04/19 00:50:56;;;;;;;7.05;5.90;;;5.90;80.70;;;;;;5471695;26;20070;-64
2024/04/19 00:53:27;;;;;;;6.82;6.05;;;5.90;80.90;;;;;;5469875;26;20269;-63
2024/04/19 00:55:55;;;;;;;7.45;6.35;;;5.90;80.90;;;;;;5465368;26;19995;-64
2024/04/19 00:58:21;;;;;;;7.22;6.50;;;5.90;80.90;;;;;;5471077;26;19994;-63
2024/04/19 01:00:47;;;;;;;7.72;6.00;;;5.80;80.80;;;;;;5463553;26;20012;-64
2024/04/19 01:03:13;;;;;;;7.40;6.70;;;5.80;80.90;;;;;;5471391;26;20361;-64
2024/04/19 01:05:39;;;;;;;7.93;6.68;;;5.80;81.10;;;;;;5465652;26;19998;-63
2024/04/19 01:08:05;;;;;;;7.93;6.85;;;5.90;81.10;;;;;;5469388;26;20401;-63
2024/04/19 01:10:32;;;;;;;9.05;7.13;;;5.80;81.00;;;;;;5468486;26;20005;-63
2024/04/19 01:12:58;;;;;;;8.35;7.30;;;5.90;81.10;;;;;;5477586;26;20357;-63
2024/04/19 01:15:24;;;;;;;7.65;6.85;;;5.80;81.00;;;;;;5490860;26;20079;-64
2024/04/19 01:17:50;;;;;;;8.15;6.82;;;5.80;81.80;;;;;;5478044;26;20009;-64
2024/04/19 01:20:16;;;;;;;7.82;6.68;;;5.80;81.00;;;;;;5471906;26;20431;-64
2024/04/19 01:22:44;;;;;;;8.70;7.00;;;5.80;80.90;;;;;;5487857;26;20004;-63
2024/04/19 01:25:15;;;;;;;7.80;6.85;;;5.80;81.10;;;;;;5472574;26;20001;-64
2024/04/19 01:27:41;;;;;;;8.30;7.40;;;5.80;81.10;;;;;;5489136;26;20008;-64
2024/04/19 01:30:07;;;;;;;8.50;7.05;;;5.70;81.10;;;;;;5474879;26;20398;-64
2024/04/19 01:32:32;;;;;;;8.65;7.32;;;5.70;81.20;;;;;;5464614;26;20039;-64
2024/04/19 01:34:59;;;;;;;9.55;7.05;;;5.70;81.10;;;;;;5478681;26;20001;-64
2024/04/19 01:37:25;;;;;;;8.60;7.00;;;5.70;81.10;;;;;;5466181;26;19998;-63
2024/04/19 01:39:50;;;;;;;8.20;6.93;;;5.70;81.00;;;;;;5468673;26;20002;-64
2024/04/19 01:42:16;;;;;;;8.55;6.82;;;5.80;81.00;;;;;;5469440;26;20011;-64
2024/04/19 01:44:41;;;;;;;9.18;7.28;;;5.70;80.90;;;;;;5467707;26;20360;-64
2024/04/19 01:47:07;;;;;;;8.70;7.70;;;5.70;80.90;;;;;;5468021;26;19999;-64
2024/04/19 01:49:32;;;;;;;8.98;7.57;;;5.70;81.10;;;;;;5478232;26;20001;-64
2024/04/19 01:51:58;;;;;;;10.57;7.30;;;5.70;81.20;;;;;;5468830;26;19998;-64
2024/04/19 01:54:23;;;;;;;9.65;7.75;;;5.70;81.30;;;;;;5472694;26;20002;-64
2024/04/19 01:56:52;;;;;;;11.63;8.25;;;5.70;81.40;;;;;;5477000;26;20002;-64
2024/04/19 01:59:18;;;;;;;12.98;8.15;;;5.70;81.40;;;;;;5472224;26;20019;-64
2024/04/19 02:01:44;;;;;;;11.80;8.60;;;5.60;81.60;;;;;;5472055;26;20009;-64
2024/04/19 02:04:09;;;;;;;9.55;8.07;;;5.60;81.70;;;;;;5483101;26;20012;-63
2024/04/19 02:06:37;;;;;;;10.65;8.00;;;5.60;81.80;;;;;;5473224;26;20009;-64
2024/04/19 02:09:05;;;;;;;9.07;7.78;;;5.60;81.90;;;;;;5463956;26;19999;-65
2024/04/19 02:11:31;;;;;;;10.65;8.43;;;5.60;82.10;;;;;;5477888;26;19994;-64
2024/04/19 02:13:56;;;;;;;10.32;8.02;;;5.60;82.10;;;;;;5475980;26;20074;-63
2024/04/19 02:16:22;;;;;;;10.35;8.15;;;5.60;82.10;;;;;;5472140;26;20524;-64
2024/04/19 02:18:48;;;;;;;11.25;8.55;;;5.60;82.30;;;;;;5475274;26;20005;-64
2024/04/19 02:21:13;;;;;;;9.30;7.82;;;5.60;82.30;;;;;;5466662;26;20449;-64
2024/04/19 02:23:40;;;;;;;9.77;7.88;;;5.60;82.30;;;;;;5459495;26;20341;-64
2024/04/19 02:26:09;;;;;;;10.48;7.57;;;5.60;82.30;;;;;;5462608;26;19998;-64
2024/04/19 02:31:22;;;;;;;9.55;7.70;;;5.70;82.30;;;;;;5460596;26;20096;-64
2024/04/19 02:33:48;;;;;;;10.90;8.48;;;5.70;82.10;;;;;;5463108;26;20004;-63
2024/04/19 02:36:13;;;;;;;11.02;8.50;;;5.70;82.10;;;;;;5465467;26;19994;-64
2024/04/19 02:38:39;;;;;;;11.90;8.55;;;5.80;82.30;;;;;;5461269;26;19991;-62
2024/04/19 02:41:05;;;;;;;12.93;8.82;;;5.80;82.20;;;;;;5465909;26;20006;-64
2024/04/19 02:43:31;;;;;;;11.27;7.93;;;5.80;82.20;;;;;;5473551;26;20125;-63
2024/04/19 02:46:02;;;;;;;10.05;8.20;;;5.80;82.10;;;;;;5474219;26;20439;-61
2024/04/19 02:48:27;;;;;;;9.48;7.65;;;5.80;82.00;;;;;;5443514;26;20389;-62
2024/04/19 02:50:53;;;;;;;11.25;7.93;;;5.80;81.80;;;;;;5441861;26;19999;-64
2024/04/19 02:53:19;;;;;;;10.93;7.45;;;5.90;81.70;;;;;;5464495;26;20001;-64
2024/04/19 02:55:44;;;;;;;9.32;7.82;;;5.90;81.50;;;;;;5471275;26;19995;-64
2024/04/19 02:58:10;;;;;;;10.18;7.47;;;5.90;81.40;;;;;;5472827;26;20334;-64
2024/04/19 03:00:36;;;;;;;9.32;7.63;;;5.90;81.40;;;;;;5470275;26;20461;-64
2024/04/19 03:03:01;;;;;;;10.57;7.90;;;5.90;81.30;;;;;;5472266;26;20001;-64
2024/04/19 03:05:27;;;;;;;10.18;7.82;;;5.90;81.20;;;;;;5481729;26;19994;-64
2024/04/19 03:07:52;;;;;;;10.38;8.13;;;5.90;81.20;;;;;;5462035;26;20097;-63
2024/04/19 03:10:18;;;;;;;9.25;7.43;;;5.90;81.20;;;;;;5470711;26;19994;-63
2024/04/19 03:12:43;;;;;;;10.25;7.50;;;5.90;81.10;;;;;;5474073;26;20566;-62
2024/04/19 03:15:09;;;;;;;9.25;7.28;;;5.90;81.20;;;;;;5475590;26;19990;-64
2024/04/19 03:17:35;;;;;;;10.88;8.00;;;5.90;81.30;;;;;;5474843;26;20329;-64
2024/04/19 03:20:00;;;;;;;9.80;7.97;;;5.90;81.20;;;;;;5474716;26;20066;-64
2024/04/19 03:22:26;;;;;;;12.40;8.52;;;5.90;81.20;;;;;;5470922;26;20342;-64
2024/04/19 03:24:52;;;;;;;10.35;8.23;;;5.90;81.30;;;;;;5472729;26;20021;-64
2024/04/19 03:27:17;;;;;;;9.90;7.53;;;5.80;81.30;;;;;;5465717;26;20729;-63
2024/04/19 03:29:47;;;;;;;9.50;7.70;;;5.80;81.30;;;;;;5472005;26;20489;-63
2024/04/19 03:32:12;;;;;;;10.13;7.78;;;5.80;81.40;;;;;;5466459;26;20043;-64
2024/04/19 03:34:41;;;;;;;10.48;7.82;;;5.80;81.40;;;;;;5470490;26;19990;-64
2024/04/19 03:37:06;;;;;;;10.18;7.97;;;5.80;81.50;;;;;;5474261;26;20445;-64
2024/04/19 03:39:32;;;;;;;10.70;8.18;;;5.80;81.60;;;;;;5464387;26;20034;-63
2024/04/19 03:41:57;;;;;;;11.20;8.20;;;5.80;81.70;;;;;;5472436;26;20641;-63
2024/04/19 03:47:07;;;;;;;10.10;7.97;;;5.80;81.80;;;;;;5471110;26;20001;-63
2024/04/19 03:49:33;;;;;;;9.98;7.88;;;5.90;81.80;;;;;;5467327;26;20037;-64
2024/04/19 03:51:59;;;;;;;11.88;8.10;;;5.90;81.80;;;;;;5469400;26;20445;-63
2024/04/19 03:54:24;;;;;;;10.60;8.00;;;5.90;81.80;;;;;;5467968;26;20009;-63
2024/04/19 03:56:50;;;;;;;10.55;7.93;;;5.90;81.80;;;;;;5464095;26;20017;-63
2024/04/19 03:59:15;;;;;;;10.65;8.05;;;5.90;82.00;;;;;;5468520;26;19998;-63
2024/04/19 04:01:41;;;;;;;10.25;8.10;;;5.90;82.10;;;;;;5467687;26;20261;-64
2024/04/19 04:04:07;;;;;;;10.15;7.57;;;5.90;81.90;;;;;;5466955;26;21148;-61
2024/04/19 04:06:33;;;;;;;9.63;7.22;;;5.90;81.90;;;;;;5467952;26;20728;-63
2024/04/19 04:08:59;;;;;;;9.10;7.22;;;6.00;82.00;;;;;;5472820;26;20385;-64
2024/04/19 04:11:24;;;;;;;12.75;7.18;;;6.00;82.00;;;;;;5462200;26;20026;-62
2024/04/19 04:13:50;;;;;;;10.95;7.80;;;6.00;81.90;;;;;;5468969;26;20483;-63
2024/04/19 04:16:15;;;;;;;10.40;7.38;;;6.10;81.90;;;;;;5468011;26;19999;-62
2024/04/19 04:18:41;;;;;;;9.75;7.45;;;6.10;81.80;;;;;;5467885;26;20009;-63
2024/04/19 04:21:06;;;;;;;9.48;7.50;;;6.10;81.80;;;;;;5469502;26;20006;-64
2024/04/19 04:23:33;;;;;;;10.80;7.97;;;6.10;81.80;;;;;;5462775;26;20344;-63
2024/04/19 04:25:58;;;;;;;11.45;8.15;;;6.20;81.70;;;;;;5458835;26;19998;-64
2024/04/19 04:28:24;;;;;;;10.68;7.28;;;6.20;81.60;;;;;;5463018;26;20006;-64
2024/04/19 04:30:50;;;;;;;9.10;7.28;;;6.10;81.60;;;;;;5470224;26;20038;-62
2024/04/19 04:33:16;;;;;;;10.02;7.55;;;6.20;82.50;;;;;;5468030;26;20074;-64
2024/04/19 04:35:44;;;;;;;10.45;7.68;;;6.20;81.60;;;;;;5469328;26;19998;-63
2024/04/19 04:38:10;;;;;;;10.60;7.97;;;6.20;81.70;;;;;;5465458;26;20066;-62
2024/04/19 04:40:35;;;;;;;11.57;8.57;;;6.10;81.70;;;;;;5442218;26;20010;-64
2024/04/19 04:43:01;;;;;;;10.95;8.15;;;6.20;81.90;;;;;;5468668;26;20005;-64
2024/04/19 04:45:28;;;;;;;10.57;8.10;;;6.10;81.80;;;;;;5468488;26;20520;-64
2024/04/19 04:47:54;;;;;;;11.40;8.18;;;6.10;81.90;;;;;;5459714;26;20012;-63
2024/04/19 04:50:20;;;;;;;13.65;9.85;;;6.10;81.80;;;;;;5469741;26;20006;-64
2024/04/19 04:52:46;;;;;;;12.35;8.98;;;6.10;82.00;;;;;;5469014;26;20086;-64
2024/04/19 04:55:14;;;;;;;12.45;8.45;;;6.10;83.00;;;;;;5470616;26;20006;-64
2024/04/19 04:57:40;;;;;;;13.15;8.60;;;6.10;82.30;;;;;;5479668;26;20369;-64
2024/04/19 05:00:07;;;;;;;14.20;9.10;;;6.20;82.30;;;;;;5473342;26;20011;-62
2024/04/19 05:02:34;;;;;;;13.43;8.82;;;6.10;82.30;;;;;;5473564;26;19991;-64
2024/04/19 05:04:59;;;;;;;12.90;8.77;;;6.20;82.60;;;;;;5470629;26;19998;-63
2024/04/19 05:07:26;;;;;;;13.00;9.05;;;6.20;83.30;;;;;;5471787;26;20005;-64
2024/04/19 05:09:51;;;;;;;13.95;9.07;;;6.20;82.60;;;;;;5462817;26;20005;-64
2024/04/19 05:12:20;;;;;;;11.57;8.35;;;6.20;82.50;;;;;;5455511;26;20014;-64
2024/04/19 05:14:46;;;;;;;12.30;8.90;;;6.20;82.80;;;;;;5473452;26;20464;-64
2024/04/19 05:17:11;;;;;;;15.20;9.55;;;6.20;82.60;;;;;;5467033;26;20002;-64
2024/04/19 05:19:37;;;;;;;13.18;9.52;;;6.20;82.80;;;;;;5472322;26;19998;-64
2024/04/19 05:22:03;;;;;;;12.70;9.35;;;6.20;82.60;;;;;;5462585;26;20452;-64
2024/04/19 05:24:28;;;;;;;13.57;9.13;;;6.20;82.60;;;;;;5466589;26;20017;-64
2024/04/19 05:26:57;;;;;;;13.68;8.85;;;6.20;82.60;;;;;;5471431;26;20014;-64
2024/04/19 05:29:26;;;;;;;14.38;10.07;;;6.20;82.60;;;;;;5460279;26;20346;-64
2024/04/19 05:31:52;;;;;;;17.95;9.95;;;6.20;82.60;;;;;;5464751;26;19995;-63
2024/04/19 05:34:18;;;;;;;12.52;9.63;;;6.20;82.60;;;;;;5462729;26;20375;-64
2024/04/19 05:36:44;;;;;;;14.65;9.70;;;6.20;82.60;;;;;;5472244;26;19998;-64
2024/04/19 05:39:09;;;;;;;13.90;10.00;;;6.20;83.70;;;;;;5473360;26;20021;-63
2024/04/19 05:41:35;;;;;;;17.35;10.70;;;6.20;83.80;;;;;;5465298;26;20537;-64
2024/04/19 05:44:01;;;;;;;15.23;9.30;;;6.20;83.00;;;;;;5456643;26;20030;-63
2024/04/19 05:46:26;;;;;;;12.63;9.63;;;6.20;82.90;;;;;;5480982;26;20494;-63
2024/04/19 05:48:52;;;;;;;13.27;9.85;;;6.20;83.00;;;;;;5465362;26;20107;-64
2024/04/19 05:51:18;;;;;;;12.18;9.07;;;6.30;83.00;;;;;;5469555;26;20010;-64
2024/04/19 05:53:43;;;;;;;14.13;10.02;;;6.30;82.90;;;;;;5474375;26;20074;-63
2024/04/19 05:56:09;;;;;;;12.98;9.57;;;6.30;82.90;;;;;;5460434;26;19995;-64
2024/04/19 05:58:34;;;;;;;18.58;10.05;;;6.30;83.00;;;;;;5463004;26;19999;-62
2024/04/19 06:01:00;;;;;;;14.38;9.52;;;6.40;83.00;;;;;;5465053;26;20407;-64
2024/04/19 06:03:25;;;;;;;12.63;9.25;;;6.40;82.90;;;;;;5470694;26;20002;-64
2024/04/19 06:05:51;;;;;;;12.63;9.05;;;6.40;82.90;;;;;;5468099;26;19990;-63
2024/04/19 06:08:16;;;;;;;13.52;10.00;;;6.40;82.80;;;;;;5466450;26;20018;-63
2024/04/19 06:10:42;;;;;;;14.80;10.30;;;6.40;82.90;;;;;;5478365;26;20379;-64
2024/04/19 06:13:08;;;;;;;15.10;9.95;;;6.50;82.90;;;;;;5470095;26;20009;-64
2024/04/19 06:15:33;;;;;;;12.93;9.60;;;6.50;82.80;;;;;;5473515;26;20343;-64
2024/04/19 06:17:59;;;;;;;15.05;9.75;;;6.50;82.70;;;;;;5469633;26;19991;-64
2024/04/19 06:20:25;;;;;;;14.43;9.77;;;6.50;82.70;;;;;;5480399;26;20046;-64
2024/04/19 06:22:51;;;;;;;20.13;10.55;;;6.50;82.80;;;;;;5466255;26;20006;-64
2024/04/19 06:25:16;;;;;;;14.07;9.90;;;6.50;82.70;;;;;;5479315;26;19998;-64
2024/04/19 06:27:42;;;;;;;13.95;10.30;;;6.60;82.80;;;;;;5468972;26;19991;-64
2024/04/19 06:30:08;;;;;;;16.38;9.25;;;6.60;82.80;;;;;;5477278;26;19991;-64
2024/04/19 06:32:34;;;;;;;13.07;9.48;;;6.60;82.80;;;;;;5478317;26;20062;-62
2024/04/19 06:35:00;;;;;;;13.93;9.05;;;6.60;82.80;;;;;;5482778;26;20009;-64
2024/04/19 06:37:25;;;;;;;13.60;9.40;;;6.70;82.90;;;;;;5480846;26;20417;-64
2024/04/19 06:39:51;;;;;;;13.45;8.63;;;6.70;82.90;;;;;;5478959;26;20397;-64
2024/04/19 06:42:16;;;;;;;15.38;9.15;;;6.70;82.70;;;;;;5478736;26;20497;-64
2024/04/19 06:44:42;;;;;;;10.77;8.63;;;6.80;82.80;;;;;;5470989;26;20013;-64
2024/04/19 06:47:07;;;;;;;11.05;8.70;;;6.80;82.70;;;;;;5470297;26;20022;-63
2024/04/19 06:49:33;;;;;;;12.23;8.82;;;6.80;82.60;;;;;;5473429;26;20341;-64
2024/04/19 06:51:58;;;;;;;11.07;8.50;;;6.80;82.30;;;;;;5471095;26;20380;-63
2024/04/19 06:54:24;;;;;;;11.75;8.65;;;6.90;82.20;;;;;;5473709;26;20085;-64
2024/04/19 06:56:50;;;;;;;12.50;8.05;;;6.90;82.00;;;;;;5470107;26;20333;-64
2024/04/19 06:59:15;;;;;;;10.45;7.80;;;6.90;82.00;;;;;;5464888;26;19994;-64
2024/04/19 07:01:43;;;;;;;12.20;8.30;;;6.90;82.00;;;;;;5471727;26;20319;-62
2024/04/19 07:04:08;;;;;;;13.63;8.88;;;6.90;82.10;;;;;;5472240;26;20003;-63
2024/04/19 07:06:34;;;;;;;11.23;8.52;;;7.00;82.00;;;;;;5472624;26;19998;-63
2024/04/19 07:09:00;;;;;;;11.25;8.45;;;7.00;81.90;;;;;;5464965;26;19999;-63
2024/04/19 07:11:25;;;;;;;11.35;8.48;;;7.00;81.80;;;;;;5475667;26;20395;-63
2024/04/19 07:13:51;;;;;;;9.77;7.45;;;7.10;81.70;;;;;;5481350;26;20002;-63
2024/04/19 07:16:17;;;;;;;10.65;7.63;;;7.10;81.50;;;;;;5472335;26;20018;-63
2024/04/19 07:18:45;;;;;;;11.07;8.13;;;7.20;81.40;;;;;;5458340;26;20002;-63
2024/04/19 07:21:11;;;;;;;12.43;8.18;;;7.20;81.20;;;;;;5473821;26;20016;-64
2024/04/19 07:23:36;;;;;;;14.18;8.23;;;7.20;81.00;;;;;;5459003;26;20005;-63
2024/04/19 07:26:02;;;;;;;10.52;7.60;;;7.30;81.60;;;;;;5478988;26;20059;-64
2024/04/19 07:28:27;;;;;;;11.20;8.25;;;7.30;80.60;;;;;;5474495;26;19994;-63
2024/04/19 07:30:53;;;;;;;12.68;8.02;;;7.40;80.50;;;;;;5472974;26;20037;-64
2024/04/19 07:33:19;;;;;;;10.63;7.90;;;7.40;81.00;;;;;;5439462;26;19991;-64
2024/04/19 07:35:45;;;;;;;11.05;8.20;;;7.50;80.10;;;;;;5473101;26;20453;-62
2024/04/19 07:38:11;;;;;;;10.02;7.78;;;7.50;79.80;;;;;;5480662;26;20433;-64
2024/04/19 07:40:38;;;;;;;9.18;7.40;;;7.50;79.80;;;;;;5470193;26;20334;-63
2024/04/19 07:43:04;;;;;;;11.05;8.02;;;7.60;79.50;;;;;;5461566;26;20030;-64
2024/04/19 07:45:30;;;;;;;10.27;7.25;;;7.60;79.40;;;;;;5437105;26;20481;-64
2024/04/19 07:47:56;;;;;;;10.75;7.90;;;7.60;79.40;;;;;;5469595;26;20020;-64
2024/04/19 07:50:22;;;;;;;9.13;7.38;;;7.70;79.20;;;;;;5474885;26;19998;-64
2024/04/19 07:52:49;;;;;;;10.10;7.18;;;7.70;79.10;;;;;;5470528;26;19999;-64
2024/04/19 07:55:15;;;;;;;10.00;7.13;;;7.80;78.90;;;;;;5465779;26;20342;-64
2024/04/19 07:57:41;;;;;;;9.68;6.90;;;7.80;78.50;;;;;;5463455;26;20014;-64
2024/04/19 08:00:15;;;;;;;10.40;7.50;;;7.90;78.40;;;;;;5461654;26;19991;-63
2024/04/19 08:02:41;;;;;;;9.57;6.53;;;7.90;78.20;;;;;;5434859;26;20419;-64
2024/04/19 08:05:07;;;;;;;10.20;7.70;;;7.90;77.80;;;;;;5462313;26;20026;-64
2024/04/19 08:07:32;;;;;;;9.05;6.95;;;8.00;77.70;;;;;;5470419;26;19998;-63
2024/04/19 08:09:58;;;;;;;10.05;6.50;;;8.00;77.70;;;;;;5467044;26;20030;-63
2024/04/19 08:12:23;;;;;;;9.40;6.63;;;8.00;77.60;;;;;;5474803;26;20012;-63
2024/04/19 08:14:49;;;;;;;10.30;6.70;;;8.10;77.50;;;;;;5429257;26;19998;-63
2024/04/19 08:17:15;;;;;;;9.23;6.63;;;8.00;77.20;;;;;;5470329;26;20006;-63
2024/04/19 08:19:40;;;;;;;8.55;6.50;;;8.00;77.00;;;;;;5465847;26;19994;-63
2024/04/19 08:22:06;;;;;;;8.85;6.15;;;8.10;77.10;;;;;;5436801;26;20417;-63
2024/04/19 08:24:31;;;;;;;6.68;5.53;;;8.10;77.40;;;;;;5471940;26;19998;-64
2024/04/19 08:26:57;;;;;;;7.65;5.45;;;8.10;77.40;;;;;;5471826;26;20062;-64
2024/04/19 08:29:23;;;;;;;6.75;4.95;;;8.10;77.10;;;;;;5467795;26;20342;-63
2024/04/19 08:31:49;;;;;;;9.25;5.50;;;8.20;76.70;;;;;;5472849;26;20387;-63
2024/04/19 08:34:15;;;;;;;8.13;5.65;;;8.20;76.70;;;;;;5460218;26;19999;-63
2024/04/19 08:36:41;;;;;;;7.20;4.93;;;8.20;76.50;;;;;;5470304;26;20529;-63
2024/04/19 08:39:06;;;;;;;5.60;4.45;;;8.20;76.70;;;;;;5476408;26;20006;-65
2024/04/19 08:41:32;;;;;;;5.80;4.53;;;8.30;76.80;;;;;;5467171;26;20353;-63
2024/04/19 08:43:59;;;;;;;6.82;5.13;;;8.30;76.70;;;;;;5463321;26;20024;-64
2024/04/19 08:46:33;;;;;;;7.22;5.18;;;8.40;76.60;;;;;;5474929;26;20009;-64
2024/04/19 08:49:08;;;;;;;6.60;5.28;;;8.40;77.00;;;;;;5465723;26;20033;-64
2024/04/19 08:51:37;;;;;;;6.30;5.07;;;8.50;75.80;;;;;;5470491;26;19998;-63
2024/04/19 08:54:04;;;;;;;6.55;5.55;;;8.50;76.10;;;;;;5470360;26;20270;-64
2024/04/19 08:56:30;;;;;;;7.53;5.15;;;8.50;75.90;;;;;;5473016;26;20008;-64
2024/04/19 08:58:56;;;;;;;7.07;5.53;;;8.50;75.80;;;;;;5467249;26;20010;-64
2024/04/19 09:01:23;;;;;;;7.68;5.20;;;8.50;75.40;;;;;;5467998;26;20497;-64
2024/04/19 09:03:48;;;;;;;5.72;5.07;;;8.60;75.90;;;;;;5478154;26;20483;-64
2024/04/19 09:06:14;;;;;;;6.72;5.28;;;8.60;76.20;;;;;;5467064;26;20025;-64
2024/04/19 09:08:41;;;;;;;6.30;5.13;;;8.60;75.50;;;;;;5466308;26;20010;-64
2024/04/19 09:11:10;;;;;;;7.47;5.10;;;8.70;75.20;;;;;;5465203;26;20067;-63
2024/04/19 09:13:36;;;;;;;6.63;5.05;;;8.70;74.70;;;;;;5467863;26;20472;-63
2024/04/19 09:16:01;;;;;;;6.93;5.13;;;8.80;75.10;;;;;;5473864;26;20002;-63
2024/04/19 09:18:27;;;;;;;5.50;4.82;;;8.80;74.40;;;;;;5463399;26;19999;-63
2024/04/19 09:20:53;;;;;;;6.20;5.10;;;8.80;73.90;;;;;;5462471;26;20374;-63
2024/04/19 09:23:19;;;;;;;5.97;4.95;;;8.80;73.70;;;;;;5463773;26;20011;-61
2024/04/19 09:25:54;;;;;;;5.90;5.05;;;8.80;73.90;;;;;;5477687;26;20066;-64
2024/04/19 09:28:22;;;;;;;6.35;4.78;;;8.80;73.80;;;;;;5468593;26;20002;-61
2024/04/19 09:30:52;;;;;;;6.15;4.90;;;8.80;74.00;;;;;;5479353;26;20002;-64
2024/04/19 09:33:19;;;;;;;6.18;5.18;;;8.80;73.70;;;;;;5471448;26;20333;-62
2024/04/19 09:35:45;;;;;;;7.88;5.20;;;8.80;73.90;;;;;;5468351;26;19994;-63
2024/04/19 09:38:12;;;;;;;7.15;5.30;;;8.80;74.00;;;;;;5470733;26;19998;-64
2024/04/19 09:40:38;;;;;;;5.97;5.15;;;8.80;74.40;;;;;;5474911;26;20164;-63
2024/04/19 09:43:06;;;;;;;6.18;4.97;;;8.80;74.60;;;;;;5470816;26;20006;-63
2024/04/19 09:45:43;;;;;;;6.80;5.50;;;8.80;74.70;;;;;;5475764;26;20471;-64
2024/04/19 09:48:10;;;;;;;6.20;5.28;;;8.80;74.90;;;;;;5469996;26;20006;-63
2024/04/19 09:50:39;;;;;;;6.95;5.32;;;8.80;76.10;;;;;;5452228;26;20008;-63
2024/04/19 09:53:14;;;;;;;7.68;6.20;;;8.80;75.50;;;;;;5482929;26;20016;-63
2024/04/19 09:56:00;;;;;;;7.60;5.72;;;8.70;75.60;;;;;;5470516;26;19994;-63
2024/04/19 09:58:27;;;;;;;8.00;5.47;;;8.70;75.80;;;;;;5475791;26;19999;-63
2024/04/19 10:00:54;;;;;;;7.72;5.90;;;8.70;75.60;;;;;;5474456;26;20013;-63
2024/04/19 10:03:21;;;;;;;6.15;5.30;;;8.70;76.10;;;;;;5463691;26;20398;-62
2024/04/19 10:05:48;;;;;;;7.30;5.28;;;8.70;76.50;;;;;;5471470;26;20002;-63
2024/04/19 10:08:15;;;;;;;6.47;5.30;;;8.70;76.40;;;;;;5474466;26;20041;-63
2024/04/19 10:10:41;;;;;;;5.95;4.93;;;8.70;76.50;;;;;;5475210;26;20070;-63
2024/04/19 10:13:07;;;;;;;6.85;5.10;;;8.70;76.60;;;;;;5476871;26;20450;-63
2024/04/19 10:15:33;;;;;;;7.00;5.25;;;8.70;76.60;;;;;;5460075;26;20013;-64
2024/04/19 10:18:02;;;;;;;7.05;5.60;;;8.60;76.60;;;;;;5479315;26;20002;-63
2024/04/19 10:20:28;;;;;;;6.88;5.57;;;8.70;77.40;;;;;;5459490;26;20709;-63
2024/04/19 10:22:54;;;;;;;7.88;5.80;;;8.60;77.30;;;;;;5471825;26;20006;-64
2024/04/19 10:25:25;;;;;;;6.25;5.50;;;8.60;77.40;;;;;;5471257;26;20070;-64
2024/04/19 10:27:51;;;;;;;7.57;5.63;;;8.70;77.30;;;;;;5476641;26;20031;-64
2024/04/19 10:30:17;;;;;;;7.10;5.85;;;8.70;77.10;;;;;;5471853;26;20026;-63
2024/04/19 10:32:51;;;;;;;6.82;5.50;;;8.70;77.10;;;;;;5480711;26;19998;-64
2024/04/19 10:35:21;;;;;;;8.68;6.43;;;8.70;78.10;;;;;;5470298;26;20386;-63
2024/04/19 10:37:46;;;;;;;7.35;5.78;;;8.70;77.40;;;;;;5473637;26;20476;-64
2024/04/19 10:40:14;;;;;;;7.95;6.50;;;8.70;77.80;;;;;;5468415;26;19999;-63
2024/04/19 10:42:40;;;;;;;7.80;5.72;;;8.70;77.80;;;;;;5476211;26;20027;-63
2024/04/19 10:45:11;;;;;;;7.63;5.50;;;8.60;77.80;;;;;;5468223;26;19991;-63
2024/04/19 10:47:36;;;;;;;7.72;5.45;;;8.60;77.90;;;;;;5475048;26;19998;-63
2024/04/19 10:50:02;;;;;;;6.60;5.43;;;8.60;77.90;;;;;;5467558;26;20010;-64
2024/04/19 10:52:28;;;;;;;6.10;5.13;;;8.60;77.70;;;;;;5472552;26;20002;-64
2024/04/19 10:54:53;;;;;;;10.50;5.53;;;8.50;77.70;;;;;;5471989;26;20040;-63
2024/04/19 10:57:19;;;;;;;6.07;4.93;;;8.50;77.90;;;;;;5471907;26;20357;-61
2024/04/19 10:59:44;;;;;;;8.30;5.47;;;8.50;78.00;;;;;;5477592;26;19994;-63
2024/04/19 11:02:12;;;;;;;6.45;5.22;;;8.40;78.90;;;;;;5474201;26;20504;-63
2024/04/19 11:04:39;;;;;;;9.20;5.45;;;8.40;78.20;;;;;;5475018;26;20009;-63
2024/04/19 11:07:05;;;;;;;5.53;4.93;;;8.30;78.40;;;;;;5469024;26;20010;-63
2024/04/19 11:09:31;;;;;;;8.40;5.28;;;8.30;78.90;;;;;;5468864;26;19994;-63
2024/04/19 11:11:57;;;;;;;6.50;5.00;;;8.30;79.30;;;;;;5481165;26;20016;-64
2024/04/19 11:14:23;;;;;;;6.20;5.00;;;8.20;79.30;;;;;;5466053;26;20006;-62
2024/04/19 11:16:48;;;;;;;5.93;5.00;;;8.10;79.50;;;;;;5478175;26;19998;-61
2024/04/19 11:19:16;;;;;;;6.78;5.20;;;8.10;80.00;;;;;;5465194;26;20349;-63
2024/04/19 11:21:42;;;;;;;6.35;4.95;;;8.10;80.30;;;;;;5475038;26;20087;-63
2024/04/19 11:24:08;;;;;;;4.68;4.28;;;8.20;80.20;;;;;;5468749;26;20461;-63
2024/04/19 11:26:33;;;;;;;4.78;4.28;;;8.10;79.80;;;;;;5480942;26;20002;-63
2024/04/19 11:28:59;;;;;;;5.03;4.32;;;8.00;79.80;;;;;;5474828;26;20446;-63
2024/04/19 11:31:25;;;;;;;5.03;4.40;;;8.00;79.70;;;;;;5470071;26;20010;-63
2024/04/19 11:33:54;;;;;;;4.82;4.30;;;7.90;80.10;;;;;;5471107;26;20579;-63
2024/04/19 11:36:19;;;;;;;4.90;4.30;;;7.90;80.20;;;;;;5476049;26;20066;-64
2024/04/19 11:38:45;;;;;;;5.18;4.18;;;7.80;80.40;;;;;;5473349;26;20010;-63
2024/04/19 11:41:13;;;;;;;6.80;4.38;;;7.80;80.80;;;;;;5474526;26;20001;-64
2024/04/19 11:43:38;;;;;;;4.95;4.45;;;7.80;81.30;;;;;;5473695;26;20047;-63
2024/04/19 11:46:04;;;;;;;6.63;4.53;;;7.80;81.50;;;;;;5463526;26;20010;-63
2024/04/19 11:48:30;;;;;;;4.63;4.05;;;7.80;81.30;;;;;;5448168;26;20008;-63
2024/04/19 11:50:57;;;;;;;5.80;4.13;;;7.70;81.50;;;;;;5467660;26;20005;-64
2024/04/19 11:53:23;;;;;;;4.63;4.22;;;7.70;81.70;;;;;;5481617;26;19994;-63
2024/04/19 11:55:50;;;;;;;4.93;4.18;;;7.70;81.70;;;;;;5469732;26;20034;-63
2024/04/19 11:58:19;;;;;;;5.20;4.70;;;7.60;81.60;;;;;;5476356;26;20017;-63
2024/04/19 12:00:45;;;;;;;4.75;4.25;;;7.60;81.90;;;;;;5467947;26;20005;-65
2024/04/19 12:03:11;;;;;;;7.00;4.90;;;7.60;81.90;;;;;;5464210;26;20002;-62
2024/04/19 12:05:37;;;;;;;5.40;4.40;;;7.50;82.20;;;;;;5470826;26;20013;-63
2024/04/19 12:08:03;;;;;;;7.55;4.90;;;7.50;82.10;;;;;;5478534;26;19994;-64
2024/04/19 12:10:30;;;;;;;6.95;5.30;;;7.50;82.40;;;;;;5480732;26;20006;-63
2024/04/19 12:12:55;;;;;;;7.55;5.03;;;7.50;82.70;;;;;;5470161;26;20010;-63
2024/04/19 12:15:21;;;;;;;7.20;4.40;;;7.40;82.90;;;;;;5470278;26;20010;-63
2024/04/19 12:17:47;;;;;;;6.70;5.13;;;7.40;82.60;;;;;;5469541;26;19995;-63
2024/04/19 12:20:12;;;;;;;5.97;4.75;;;7.40;82.70;;;;;;5470061;26;20338;-63
2024/04/19 12:22:38;;;;;;;5.82;4.97;;;7.40;82.90;;;;;;5474069;26;19998;-63
2024/04/19 12:25:04;;;;;;;6.22;5.30;;;7.40;82.70;;;;;;5465477;26;19998;-63
2024/04/19 12:27:30;;;;;;;5.88;5.00;;;7.30;83.00;;;;;;5479168;26;20005;-64
2024/04/19 12:29:55;;;;;;;5.72;4.65;;;7.30;83.30;;;;;;5472361;26;20526;-62
2024/04/19 12:32:21;;;;;;;5.78;5.00;;;7.30;83.80;;;;;;5472947;26;20046;-63
2024/04/19 12:34:46;;;;;;;5.55;4.90;;;7.30;83.80;;;;;;5432397;26;19995;-63
2024/04/19 12:37:13;;;;;;;5.15;4.50;;;7.30;83.80;;;;;;5471134;26;20006;-62
2024/04/19 12:39:39;;;;;;;6.53;4.57;;;7.30;84.10;;;;;;5478199;26;20070;-63
2024/04/19 12:42:05;;;;;;;5.85;4.80;;;7.30;84.00;;;;;;5436859;26;20406;-63
2024/04/19 12:44:31;;;;;;;5.38;4.28;;;7.30;84.30;;;;;;5472124;26;20368;-63
2024/04/19 12:46:57;;;;;;;5.68;4.78;;;7.30;84.00;;;;;;5468315;26;20009;-64
2024/04/19 12:49:23;;;;;;;5.90;4.55;;;7.30;84.10;;;;;;5468403;26;19995;-63
2024/04/19 12:51:49;;;;;;;5.70;4.43;;;7.30;84.30;;;;;;5472750;26;20006;-62
2024/04/19 12:54:17;;;;;;;4.93;4.22;;;7.30;84.30;;;;;;5472886;26;20470;-63